Time;durP1;ratioP1;P1;durP2;ratioP2;P2;SDS_P1;SDS_P2;PMS_P1;PMS_P2;Temp;Humidity;BMP_temperature;BMP_pressure;BME280_temperature;BME280_humidity;BME280_pressure;Samples;Min_cycle;Max_cycle;Signal;HPM_P1;HPM_P2
2024/01/02 00:01:11;;;;;;;;;0.00;0.00;;;;;-146.67;100.00;74539.84;5040719;28;61814;-78
2024/01/02 00:03:37;;;;;;;;;1.75;0.00;;;;;-146.67;100.00;74553.81;5040686;28;61953;-78
2024/01/02 00:06:02;;;;;;;;;0.00;0.00;;;;;-146.67;100.00;74559.81;5040491;28;62028;-78
2024/01/02 00:08:28;;;;;;;;;0.50;0.00;;;;;-146.67;100.00;74553.81;5043213;28;61883;-78
2024/01/02 00:10:53;;;;;;;;;0.50;0.00;;;;;-146.67;100.00;74541.84;5061244;28;62738;-78
2024/01/02 00:13:19;;;;;;;;;0.00;0.00;;;;;-146.67;100.00;74539.84;5061385;28;61936;-78
2024/01/02 00:15:44;;;;;;;;;0.00;0.00;;;;;-146.67;100.00;74543.84;5043427;28;61973;-78
2024/01/02 00:18:09;;;;;;;;;0.00;0.00;;;;;-146.67;100.00;74531.84;5061383;28;62116;-78
2024/01/02 00:20:35;;;;;;;;;0.00;0.00;;;;;-146.67;100.00;74531.84;5064569;28;62758;-78
2024/01/02 00:23:00;;;;;;;;;0.00;0.00;;;;;-146.67;100.00;74511.88;5046325;28;61946;-78
2024/01/02 00:25:25;;;;;;;;;0.00;0.00;;;;;-146.67;100.00;74497.91;5064854;28;61876;-78
2024/01/02 00:27:51;;;;;;;;;0.00;0.00;;;;;-146.67;100.00;74501.91;5064770;28;61873;-78
2024/01/02 00:30:16;;;;;;;;;1.00;0.00;;;;;-146.67;100.00;74507.91;5062741;28;63502;-78
2024/01/02 00:32:41;;;;;;;;;0.00;0.00;;;;;-146.67;100.00;74497.91;5064435;28;61847;-78
2024/01/02 00:35:07;;;;;;;;;1.00;0.00;;;;;-146.67;100.00;74483.94;5064343;28;61861;-78
2024/01/02 00:37:32;;;;;;;;;0.00;0.00;;;;;-146.67;100.00;74475.94;5064654;28;61960;-79
2024/01/02 00:39:58;;;;;;;;;0.00;0.00;;;;;-146.67;100.00;74479.94;5064014;28;61831;-79
2024/01/02 00:42:23;;;;;;;;;0.00;0.00;;;;;-146.67;100.00;74454.00;5046247;28;62078;-78
2024/01/02 00:44:48;;;;;;;;;0.00;0.00;;;;;-146.67;100.00;74448.00;5064763;28;61837;-78
2024/01/02 00:47:14;;;;;;;;;0.00;0.00;;;;;-146.67;100.00;74456.00;5063930;28;61842;-78
2024/01/02 00:49:39;;;;;;;;;0.00;0.00;;;;;-146.67;100.00;74434.03;5046008;28;64774;-78
2024/01/02 00:52:05;;;;;;;;;0.00;0.00;;;;;-146.67;100.00;74436.03;5063890;28;62003;-78
2024/01/02 00:54:30;;;;;;;;;0.00;0.00;;;;;-146.67;100.00;74422.03;5064546;28;61817;-79
2024/01/02 00:56:55;;;;;;;;;0.00;0.00;;;;;-146.67;100.00;74414.06;5064733;28;62036;-78
2024/01/02 00:59:21;;;;;;;;;0.00;0.00;;;;;-146.67;100.00;74406.06;5045232;28;63801;-78
2024/01/02 01:01:46;;;;;;;;;0.00;0.00;;;;;-146.67;100.00;74392.09;5062771;28;61968;-78
2024/01/02 01:04:11;;;;;;;;;0.00;0.00;;;;;-146.67;100.00;74396.09;5063515;28;61798;-78
2024/01/02 01:06:37;;;;;;;;;0.00;0.00;;;;;-146.67;100.00;74380.13;5062199;28;63701;-78
2024/01/02 01:09:02;;;;;;;;;0.00;0.00;;;;;-146.67;100.00;74374.13;5063832;28;61788;-78
2024/01/02 01:11:28;;;;;;;;;0.00;0.00;;;;;-146.67;100.00;74370.16;5063916;28;61737;-78
2024/01/02 01:13:53;;;;;;;;;0.00;0.00;;;;;-146.67;100.00;74368.16;5064065;28;61774;-78
2024/01/02 01:16:18;;;;;;;;;0.00;0.00;;;;;-146.67;100.00;74350.19;5064226;28;62143;-78
2024/01/02 01:18:44;;;;;;;;;0.00;0.00;;;;;-146.67;100.00;74348.19;5062493;28;62574;-77
2024/01/02 01:21:10;;;;;;;;;0.00;0.00;;;;;-146.67;100.00;74344.19;5045893;28;61885;-79
2024/01/02 01:23:36;;;;;;;;;0.00;0.00;;;;;-146.67;100.00;74342.19;5062626;28;61985;-78
2024/01/02 01:26:01;;;;;;;;;0.00;0.00;;;;;-146.67;100.00;74330.22;5064155;28;61734;-79
2024/01/02 01:28:27;;;;;;;;;1.00;0.00;;;;;-146.67;100.00;74332.22;5044820;28;63562;-79
2024/01/02 01:30:53;;;;;;;;;0.00;0.00;;;;;-146.67;100.00;74334.22;5062681;28;61763;-78
2024/01/02 01:33:19;;;;;;;;;0.75;0.00;;;;;-146.67;100.00;74326.22;5062961;28;61927;-79
2024/01/02 01:35:44;;;;;;;;;0.00;0.00;;;;;-146.67;100.00;74316.25;5063819;28;61774;-79
2024/01/02 01:38:09;;;;;;;;;0.00;0.00;;;;;-146.67;100.00;74314.25;5062627;28;62725;-79
2024/01/02 01:40:35;;;;;;;;;0.00;0.00;;;;;-146.67;100.00;74318.25;5062931;28;62250;-79
2024/01/02 01:43:00;;;;;;;;;0.00;0.00;;;;;-146.67;100.00;74316.25;5061345;28;61982;-78
2024/01/02 01:45:26;;;;;;;;;0.00;0.00;;;;;-146.67;100.00;74332.22;5063081;28;61858;-78
2024/01/02 01:47:52;;;;;;;;;0.00;0.00;;;;;-146.67;100.00;74322.22;5062329;28;61983;-78
2024/01/02 01:50:17;;;;;;;;;0.00;0.00;;;;;-146.67;100.00;74312.25;5063852;28;62291;-78
2024/01/02 01:52:43;;;;;;;;;0.00;0.00;;;;;-146.67;100.00;74308.25;5063363;28;61766;-79
2024/01/02 01:55:11;;;;;;;;;0.00;0.00;;;;;-146.67;100.00;74304.25;5063827;28;61778;-79
2024/01/02 01:57:36;;;;;;;;;0.25;0.00;;;;;-146.67;100.00;74306.25;5044356;28;64073;-79
2024/01/02 02:00:04;;;;;;;;;0.00;0.00;;;;;-146.67;100.00;74300.28;5063397;28;61807;-79
2024/01/02 02:02:31;;;;;;;;;0.00;0.00;;;;;-146.67;100.00;74300.28;5062415;28;61930;-78
2024/01/02 02:04:59;;;;;;;;;0.00;0.00;;;;;-146.67;100.00;74300.28;5063003;28;61969;-78
2024/01/02 02:07:26;;;;;;;;;1.25;0.00;;;;;-146.67;100.00;74300.28;5062423;28;62103;-79
2024/01/02 02:09:51;;;;;;;;;0.00;0.00;;;;;-146.67;100.00;74288.28;5063336;28;61867;-79
2024/01/02 02:12:17;;;;;;;;;1.00;0.00;;;;;-146.67;100.00;74292.28;5063314;28;62036;-78
2024/01/02 02:14:42;;;;;;;;;0.00;0.00;;;;;-146.67;100.00;74304.25;5063342;28;61799;-79
2024/01/02 02:17:08;;;;;;;;;0.00;0.00;;;;;-146.67;100.00;74292.28;5061709;28;62116;-78
2024/01/02 02:19:33;;;;;;;;;0.00;0.00;;;;;-146.67;100.00;74296.28;5044701;28;61920;-78
2024/01/02 02:22:00;;;;;;;;;0.00;0.00;;;;;-146.67;100.00;74280.31;5044946;28;61833;-79
2024/01/02 02:24:26;;;;;;;;;0.00;0.00;;;;;-146.67;100.00;74274.31;5063423;28;61790;-79
2024/01/02 02:26:56;;;;;;;;;1.25;0.00;;;;;-146.67;100.00;74288.28;5062037;28;61781;-78
2024/01/02 02:29:21;;;;;;;;;0.00;0.00;;;;;-146.67;100.00;74274.31;5062725;28;61757;-78
2024/01/02 02:31:47;;;;;;;;;0.00;0.00;;;;;-146.67;100.00;74280.31;5062423;28;62244;-79
2024/01/02 02:34:12;;;;;;;;;1.00;0.00;;;;;-146.67;100.00;74272.31;5044266;28;62273;-78
2024/01/02 02:36:37;;;;;;;;;0.00;0.00;;;;;-146.67;100.00;74268.31;5043926;28;63639;-78
2024/01/02 02:39:03;;;;;;;;;0.00;0.00;;;;;-146.67;100.00;74264.34;5062569;28;61814;-79
2024/01/02 02:41:28;;;;;;;;;0.00;0.00;;;;;-146.67;100.00;74264.34;5062382;28;62009;-78
2024/01/02 02:43:54;;;;;;;;;2.00;0.00;;;;;-146.67;100.00;74260.34;5062896;28;61863;-78
2024/01/02 02:46:19;;;;;;;;;1.00;0.00;;;;;-146.67;100.00;74260.34;5062010;28;61754;-79
2024/01/02 02:48:44;;;;;;;;;0.00;0.00;;;;;-146.67;100.00;74250.38;5043737;28;61948;-79
2024/01/02 02:51:10;;;;;;;;;2.00;0.00;;;;;-146.67;100.00;74250.38;5062780;28;61817;-78
2024/01/02 02:53:36;;;;;;;;;0.00;0.00;;;;;-146.67;100.00;74244.38;5062777;28;61798;-79
2024/01/02 02:56:01;;;;;;;;;1.00;0.00;;;;;-146.67;100.00;74240.38;5061789;28;62170;-78
2024/01/02 02:58:26;;;;;;;;;0.00;0.00;;;;;-146.67;100.00;74260.34;5044200;28;61954;-78
2024/01/02 03:00:52;;;;;;;;;0.00;0.00;;;;;-146.67;100.00;74238.38;5061904;28;61738;-78
2024/01/02 03:03:17;;;;;;;;;1.00;0.00;;;;;-146.67;100.00;74242.38;5062485;28;61707;-79
2024/01/02 03:05:42;;;;;;;;;0.00;0.00;;;;;-146.67;100.00;74254.34;5060967;28;62727;-79
2024/01/02 03:08:08;;;;;;;;;0.00;0.00;;;;;-146.67;100.00;74248.38;5062360;28;61953;-78
2024/01/02 03:10:33;;;;;;;;;0.00;0.00;;;;;-146.67;100.00;74246.38;5062448;28;61742;-78
2024/01/02 03:12:58;;;;;;;;;1.00;0.00;;;;;-146.67;100.00;74250.38;5044300;28;61955;-79
2024/01/02 03:15:24;;;;;;;;;0.00;0.00;;;;;-146.67;100.00;74262.34;5043304;28;63462;-78
2024/01/02 03:17:49;;;;;;;;;0.00;0.00;;;;;-146.67;100.00;74262.34;5043752;28;62182;-79
2024/01/02 03:20:15;;;;;;;;;0.00;0.00;;;;;-146.67;100.00;74258.34;5062299;28;61812;-79
2024/01/02 03:22:40;;;;;;;;;0.00;0.00;;;;;-146.67;100.00;74254.34;5062396;28;61731;-79
2024/01/02 03:25:06;;;;;;;;;0.00;0.00;;;;;-146.67;100.00;74262.34;5043479;28;63439;-78
2024/01/02 03:27:31;;;;;;;;;0.00;0.00;;;;;-146.67;100.00;74254.34;5062058;28;61754;-79
2024/01/02 03:29:56;;;;;;;;;0.00;0.00;;;;;-146.67;100.00;74258.34;5061549;28;61886;-79
2024/01/02 03:32:22;;;;;;;;;1.00;0.00;;;;;-146.67;100.00;74264.34;5061887;28;62036;-79
2024/01/02 03:34:50;;;;;;;;;0.00;0.00;;;;;-146.67;100.00;74258.34;5042736;28;63661;-79
2024/01/02 03:37:16;;;;;;;;;0.00;0.00;;;;;-146.67;100.00;74248.38;5061953;28;61978;-78
2024/01/02 03:39:41;;;;;;;;;0.00;0.00;;;;;-146.67;100.00;74242.38;5044112;28;63132;-79
2024/01/02 03:42:07;;;;;;;;;0.00;0.00;;;;;-146.67;100.00;74248.38;5061792;28;61886;-78
2024/01/02 03:44:32;;;;;;;;;0.00;0.00;;;;;-146.67;100.00;74226.41;5060972;28;61710;-78
2024/01/02 03:46:57;;;;;;;;;1.00;0.00;;;;;-146.67;100.00;74226.41;5061476;28;61745;-78
2024/01/02 03:49:23;;;;;;;;;0.00;0.00;;;;;-146.67;100.00;74238.38;5043594;28;61814;-79
2024/01/02 03:51:49;;;;;;;;;0.00;0.00;;;;;-146.67;100.00;74214.44;5062199;28;61756;-78
2024/01/02 03:54:14;;;;;;;;;0.00;0.00;;;;;-146.67;100.00;74218.41;5061794;28;63638;-78
2024/01/02 03:56:39;;;;;;;;;0.00;0.00;;;;;-146.67;100.00;74220.41;5065187;28;61981;-78
2024/01/02 03:59:05;;;;;;;;;0.00;0.00;;;;;-146.67;100.00;74210.44;5064735;28;61926;-79
2024/01/02 04:01:30;;;;;;;;;0.00;0.00;;;;;-146.67;100.00;74210.44;5065719;28;61801;-78
2024/01/02 04:03:55;;;;;;;;;0.00;0.00;;;;;-146.67;100.00;74226.41;5063652;28;61738;-78
2024/01/02 04:06:21;;;;;;;;;0.00;0.00;;;;;-146.67;100.00;74220.41;5064965;28;61843;-78
2024/01/02 04:08:46;;;;;;;;;0.00;0.00;;;;;-146.67;100.00;74230.41;5064822;28;62083;-78
2024/01/02 04:11:13;;;;;;;;;0.00;0.00;;;;;-146.67;100.00;74228.41;5065263;28;61930;-78
2024/01/02 04:13:39;;;;;;;;;0.00;0.00;;;;;-146.67;100.00;74250.38;5064362;28;62635;-79
2024/01/02 04:16:04;;;;;;;;;0.00;0.00;;;;;-146.67;100.00;74244.38;5064631;28;61951;-78
2024/01/02 04:18:30;;;;;;;;;0.00;0.00;;;;;-146.67;100.00;74244.38;5064566;28;61975;-79
2024/01/02 04:20:56;;;;;;;;;0.00;0.00;;;;;-146.67;100.00;74238.38;5065437;28;61685;-79
2024/01/02 04:23:21;;;;;;;;;0.00;0.00;;;;;-146.67;100.00;74228.41;5064218;28;61808;-78
2024/01/02 04:25:47;;;;;;;;;1.00;0.00;;;;;-146.67;100.00;74246.38;5064972;28;62054;-78
2024/01/02 04:28:12;;;;;;;;;0.00;0.00;;;;;-146.67;100.00;74236.38;5064370;28;61911;-79
2024/01/02 04:30:37;;;;;;;;;0.00;0.00;;;;;-146.67;100.00;74242.38;5065156;28;61833;-78
2024/01/02 04:33:03;;;;;;;;;0.00;0.00;;;;;-146.67;100.00;74236.38;5062385;28;63763;-79
2024/01/02 04:35:29;;;;;;;;;0.00;0.00;;;;;-146.67;100.00;74250.38;5064375;28;61842;-79
2024/01/02 04:37:54;;;;;;;;;0.00;0.00;;;;;-146.67;100.00;74236.38;5064751;28;61741;-79
2024/01/02 04:40:20;;;;;;;;;0.00;0.00;;;;;-146.67;100.00;74232.41;5064754;28;61958;-78
2024/01/02 04:42:46;;;;;;;;;1.00;0.00;;;;;-146.67;100.00;74238.38;5045368;28;64100;-79
2024/01/02 04:45:11;;;;;;;;;0.00;0.00;;;;;-146.67;100.00;74256.34;5064530;28;61714;-79
2024/01/02 04:47:36;;;;;;;;;0.25;0.00;;;;;-146.67;100.00;74274.31;5063781;28;61737;-79
2024/01/02 04:50:04;;;;;;;;;0.00;0.00;;;;;-146.67;100.00;74262.34;5064705;28;61785;-79
2024/01/02 04:52:29;;;;;;;;;0.00;0.00;;;;;-146.67;100.00;74272.31;5063403;28;62058;-79
2024/01/02 04:54:55;;;;;;;;;0.00;0.00;;;;;-146.67;100.00;74276.31;5064422;28;61775;-78
2024/01/02 04:57:20;;;;;;;;;0.00;0.00;;;;;-146.67;100.00;74268.31;5063665;28;61725;-78
2024/01/02 04:59:48;;;;;;;;;0.00;0.00;;;;;-146.67;100.00;74262.34;5064468;28;61883;-78
2024/01/02 05:02:13;;;;;;;;;0.00;0.00;;;;;-146.67;100.00;74260.34;5063257;28;62596;-79
2024/01/02 05:04:40;;;;;;;;;0.00;0.00;;;;;-146.67;100.00;74266.34;5063465;28;61785;-79
2024/01/02 05:07:06;;;;;;;;;0.00;0.00;;;;;-146.67;100.00;74276.31;5045748;28;61984;-79
2024/01/02 05:09:31;;;;;;;;;0.00;0.00;;;;;-146.67;100.00;74286.28;5064181;28;62061;-78
2024/01/02 05:11:57;;;;;;;;;0.00;0.00;;;;;-146.67;100.00;74300.28;5063056;28;61851;-79
2024/01/02 05:14:22;;;;;;;;;0.00;0.00;;;;;-146.67;100.00;74310.25;5063942;28;61909;-79
2024/01/02 05:16:49;;;;;;;;;0.25;0.00;;;;;-146.67;100.00;74296.28;5063942;28;61919;-79
2024/01/02 05:19:18;;;;;;;;;0.00;0.00;;;;;-146.67;100.00;74294.28;5063783;28;61774;-79
2024/01/02 05:21:43;;;;;;;;;0.00;0.00;;;;;-146.67;100.00;74304.25;5044945;28;64263;-79
2024/01/02 05:24:08;;;;;;;;;0.00;0.00;;;;;-146.67;100.00;74308.25;5063192;28;61924;-79
2024/01/02 05:26:34;;;;;;;;;1.00;0.00;;;;;-146.67;100.00;74296.28;5062408;28;61811;-79
2024/01/02 05:28:59;;;;;;;;;1.75;0.00;;;;;-146.67;100.00;74302.25;5064094;28;62099;-79
2024/01/02 05:31:24;;;;;;;;;0.50;0.50;;;;;-146.67;100.00;74302.25;5062203;28;61813;-78
2024/01/02 05:33:50;;;;;;;;;3.00;1.00;;;;;-146.67;100.00;74288.28;5061504;28;62075;-78
2024/01/02 05:36:15;;;;;;;;;0.00;0.00;;;;;-146.67;100.00;74276.31;5063774;28;62073;-79
2024/01/02 05:38:40;;;;;;;;;0.00;0.00;;;;;-146.67;100.00;74276.31;5063008;28;61687;-79
2024/01/02 05:41:09;;;;;;;;;0.00;0.00;;;;;-146.67;100.00;74282.31;5060083;28;64125;-78
2024/01/02 05:43:34;;;;;;;;;1.00;0.00;;;;;-146.67;100.00;74272.31;5060421;28;62044;-79
2024/01/02 05:46:00;;;;;;;;;0.00;0.00;;;;;-146.67;100.00;74274.31;5062921;28;62084;-79
2024/01/02 05:48:25;;;;;;;;;0.50;0.00;;;;;-146.67;100.00;74278.31;5062281;28;61802;-78
2024/01/02 05:50:50;;;;;;;;;0.00;0.00;;;;;-146.67;100.00;74278.31;5044081;28;63689;-78
2024/01/02 05:53:16;;;;;;;;;0.00;0.00;;;;;-146.67;100.00;74264.34;5062789;28;61737;-78
2024/01/02 05:55:41;;;;;;;;;0.00;0.00;;;;;-146.67;100.00;74266.34;5061189;28;61888;-79
2024/01/02 05:58:06;;;;;;;;;0.25;0.25;;;;;-146.67;100.00;74260.34;5063205;28;61878;-77
2024/01/02 06:00:32;;;;;;;;;1.00;1.00;;;;;-146.67;100.00;74266.34;5062358;28;62545;-79
2024/01/02 06:02:58;;;;;;;;;0.50;0.00;;;;;-146.67;100.00;74256.34;5063118;28;62734;-78
2024/01/02 06:05:23;;;;;;;;;0.00;0.00;;;;;-146.67;100.00;74264.34;5058143;28;62006;-78
2024/01/02 06:07:48;;;;;;;;;1.00;0.00;;;;;-146.67;100.00;74252.34;5041502;28;61784;-78
2024/01/02 06:10:14;;;;;;;;;0.00;0.00;;;;;-146.67;100.00;74274.31;5024148;28;63771;-79
2024/01/02 06:12:39;;;;;;;;;0.00;0.00;;;;;-146.67;100.00;74254.34;5024715;28;61854;-78
2024/01/02 06:15:05;;;;;;;;;0.00;0.00;;;;;-146.67;100.00;74266.34;5043004;28;61758;-78
2024/01/02 06:17:31;;;;;;;;;0.00;0.00;;;;;-146.67;100.00;74242.38;5042026;28;61816;-78
2024/01/02 06:19:56;;;;;;;;;0.00;0.00;;;;;-146.67;100.00;74242.38;5024093;28;63887;-81
2024/01/02 06:22:22;;;;;;;;;0.00;0.00;;;;;-146.67;100.00;74248.38;5024932;28;62041;-81
2024/01/02 06:24:49;;;;;;;;;0.00;0.00;;;;;-146.67;100.00;74234.38;5029118;28;61947;-81
2024/01/02 06:27:18;;;;;;;;;0.00;0.00;;;;;-146.67;100.00;74244.38;5062404;28;61706;-81
2024/01/02 06:29:44;;;;;;;;;0.00;0.00;;;;;-146.67;100.00;74262.34;5061893;28;61749;-81
2024/01/02 06:32:09;;;;;;;;;0.00;0.00;;;;;-146.67;100.00;74260.34;5061319;28;61992;-80
2024/01/02 06:34:34;;;;;;;;;0.00;0.00;;;;;-146.67;100.00;74270.31;5059260;28;62155;-81
2024/01/02 06:37:00;;;;;;;;;0.75;0.75;;;;;-146.67;100.00;74254.34;5043637;28;62107;-81
2024/01/02 06:39:25;;;;;;;;;0.00;0.00;;;;;-146.67;100.00;74252.34;5060891;28;61920;-81
2024/01/02 06:41:50;;;;;;;;;0.00;0.00;;;;;-146.67;100.00;74260.34;5059727;28;62042;-81
2024/01/02 06:44:16;;;;;;;;;0.00;0.00;;;;;-146.67;100.00;74240.38;5061680;28;62030;-81
2024/01/02 06:46:41;;;;;;;;;0.00;0.00;;;;;-146.67;100.00;74244.38;5061691;28;61870;-81
2024/01/02 06:49:09;;;;;;;;;0.00;0.00;;;;;-146.67;100.00;74254.34;5042373;28;63760;-81
2024/01/02 06:51:34;;;;;;;;;0.00;0.00;;;;;-146.67;100.00;74254.34;5061885;28;62166;-82
2024/01/02 06:53:59;;;;;;;;;0.00;0.00;;;;;-146.67;100.00;74264.34;5061234;28;62048;-81
2024/01/02 06:56:25;;;;;;;;;0.00;0.00;;;;;-146.67;100.00;74284.28;5062737;28;61836;-80
2024/01/02 06:58:50;;;;;;;;;0.00;0.00;;;;;-146.67;100.00;74290.28;5061258;28;62475;-81
2024/01/02 07:01:17;;;;;;;;;0.00;0.00;;;;;-146.67;100.00;74280.31;5044121;28;61984;-80
2024/01/02 07:03:42;;;;;;;;;0.00;0.00;;;;;-146.67;100.00;74296.28;5042926;28;61939;-80
2024/01/02 07:06:08;;;;;;;;;0.00;0.00;;;;;-146.67;100.00;74284.28;5061854;28;62112;-81
2024/01/02 07:08:33;;;;;;;;;0.00;0.00;;;;;-146.67;100.00;74284.28;5059812;28;64770;-80
2024/01/02 07:10:58;;;;;;;;;0.00;0.00;;;;;-146.67;100.00;74290.28;5061890;28;62107;-80
2024/01/02 07:13:24;;;;;;;;;0.00;0.00;;;;;-146.67;100.00;74296.28;5061998;28;61984;-81
2024/01/02 07:15:50;;;;;;;;;0.00;0.00;;;;;-146.67;100.00;74270.31;5062246;28;61789;-81
2024/01/02 07:18:15;;;;;;;;;0.00;0.00;;;;;-146.67;100.00;74262.34;5043068;28;64884;-80
2024/01/02 07:20:41;;;;;;;;;0.00;0.00;;;;;-146.67;100.00;74260.34;5062024;28;61791;-79
2024/01/02 07:23:06;;;;;;;;;0.00;0.00;;;;;-146.67;100.00;74254.34;5042837;28;61815;-80
2024/01/02 07:25:32;;;;;;;;;0.00;0.00;;;;;-146.67;100.00;74268.31;5060793;28;61847;-79
2024/01/02 07:27:57;;;;;;;;;0.50;0.00;;;;;-146.67;100.00;74264.34;5061179;28;63491;-80
2024/01/02 07:30:23;;;;;;;;;1.00;0.00;;;;;-146.67;100.00;74262.34;5064028;28;61990;-80
2024/01/02 07:32:48;;;;;;;;;0.00;0.00;;;;;-146.67;100.00;74244.38;5064738;28;61778;-81
2024/01/02 07:35:14;;;;;;;;;0.00;0.00;;;;;-146.67;100.00;74240.38;5064760;28;61903;-81
2024/01/02 07:37:40;;;;;;;;;0.00;0.00;;;;;-146.67;100.00;74236.38;5064279;28;61960;-80
2024/01/02 07:40:07;;;;;;;;;1.00;0.00;;;;;-146.67;100.00;74246.38;5047111;28;61844;-80
2024/01/02 07:42:33;;;;;;;;;0.00;0.00;;;;;-146.67;100.00;74228.41;5064196;28;61852;-81
2024/01/02 07:44:58;;;;;;;;;0.00;0.00;;;;;-146.67;100.00;74246.38;5065723;28;61976;-81
2024/01/02 07:47:25;;;;;;;;;0.00;0.00;;;;;-146.67;100.00;74230.41;5064210;28;61996;-80
2024/01/02 07:49:50;;;;;;;;;1.50;0.00;;;;;-146.67;100.00;74234.38;5065340;28;61921;-80
2024/01/02 07:52:16;;;;;;;;;0.00;0.00;;;;;-146.67;100.00;74228.41;5063487;28;61971;-81
2024/01/02 07:54:42;;;;;;;;;0.75;0.00;;;;;-146.67;100.00;74232.41;5065554;28;61887;-80
2024/01/02 07:57:07;;;;;;;;;0.00;0.00;;;;;-146.67;100.00;74230.41;5062904;28;63387;-81
2024/01/02 07:59:33;;;;;;;;;0.00;0.00;;;;;-146.67;100.00;74230.41;5064941;28;61907;-80
2024/01/02 08:01:58;;;;;;;;;0.00;0.00;;;;;-146.67;100.00;74214.44;5060774;28;61926;-81
2024/01/02 08:04:24;;;;;;;;;0.00;0.00;;;;;-146.67;100.00;74210.44;5062099;28;61854;-81
2024/01/02 08:06:50;;;;;;;;;0.00;0.00;;;;;-146.67;100.00;74218.41;5062505;28;63865;-80
2024/01/02 08:09:15;;;;;;;;;0.00;0.00;;;;;-146.67;100.00;74202.44;5064606;28;61750;-80
2024/01/02 08:11:40;;;;;;;;;1.00;0.00;;;;;-146.67;100.00;74212.44;5065097;28;61817;-79
2024/01/02 08:14:06;;;;;;;;;1.00;0.00;;;;;-146.67;100.00;74198.47;5065232;28;61869;-80
2024/01/02 08:16:32;;;;;;;;;0.75;0.00;;;;;-146.67;100.00;74200.44;5064350;28;61950;-79
2024/01/02 08:18:58;;;;;;;;;1.00;0.00;;;;;-146.67;100.00;74208.44;5064321;28;62015;-78
2024/01/02 08:21:23;;;;;;;;;0.00;0.00;;;;;-146.67;100.00;74210.44;5062965;28;61741;-79
2024/01/02 08:23:49;;;;;;;;;0.00;0.00;;;;;-146.67;100.00;74196.47;5065046;28;61971;-79
2024/01/02 08:26:14;;;;;;;;;0.00;0.00;;;;;-146.67;100.00;74192.47;5064083;28;62581;-79
2024/01/02 08:28:40;;;;;;;;;0.75;0.00;;;;;-146.67;100.00;74204.44;5046454;28;62061;-79
2024/01/02 08:31:05;;;;;;;;;0.00;0.00;;;;;-146.67;100.00;74204.44;5064747;28;61714;-79
2024/01/02 08:33:30;;;;;;;;;0.00;0.00;;;;;-146.67;100.00;74204.44;5063536;28;62405;-78
2024/01/02 08:35:56;;;;;;;;;0.00;0.00;;;;;-146.67;100.00;74204.44;5062286;28;63653;-79
2024/01/02 08:38:21;;;;;;;;;0.00;0.00;;;;;-146.67;100.00;74206.44;5064413;28;61845;-79
2024/01/02 08:40:47;;;;;;;;;0.00;0.00;;;;;-146.67;100.00;74200.44;5045771;28;61989;-79
2024/01/02 08:43:13;;;;;;;;;1.00;0.00;;;;;-146.67;100.00;74194.47;5064498;28;61846;-79
2024/01/02 08:45:39;;;;;;;;;0.00;0.00;;;;;-146.67;100.00;74192.47;5045905;28;64078;-78
2024/01/02 08:48:04;;;;;;;;;0.00;0.00;;;;;-146.67;100.00;74180.50;5063899;28;62176;-79
2024/01/02 08:50:30;;;;;;;;;0.00;0.00;;;;;-146.67;100.00;74182.50;5044186;28;61871;-79
2024/01/02 08:52:55;;;;;;;;;0.00;0.00;;;;;-146.67;100.00;74184.47;5062757;28;62125;-79
2024/01/02 08:55:20;;;;;;;;;0.50;0.00;;;;;-146.67;100.00;74206.44;5062867;28;62018;-79
2024/01/02 08:57:46;;;;;;;;;1.00;0.00;;;;;-146.67;100.00;74208.44;5045358;28;62204;-79
2024/01/02 09:00:14;;;;;;;;;1.00;0.00;;;;;-146.67;100.00;74180.50;5063642;28;62130;-79
2024/01/02 09:02:41;;;;;;;;;0.75;0.00;;;;;-146.67;100.00;74186.47;5061684;28;61749;-79
2024/01/02 09:05:07;;;;;;;;;1.00;1.00;;;;;-146.67;100.00;74190.47;5061908;28;62208;-78
2024/01/02 09:07:34;;;;;;;;;0.00;0.00;;;;;-146.67;100.00;74190.47;5061789;28;61808;-78
2024/01/02 09:09:59;;;;;;;;;0.50;0.00;;;;;-146.67;100.00;74202.44;5062088;28;61870;-79
2024/01/02 09:12:24;;;;;;;;;0.00;0.00;;;;;-146.67;100.00;74190.47;5063885;28;61946;-80
2024/01/02 09:14:50;;;;;;;;;2.25;0.00;;;;;-146.67;100.00;74198.47;5063500;28;61798;-79
2024/01/02 09:17:15;;;;;;;;;0.75;0.00;;;;;-146.67;100.00;74194.47;5063157;28;61913;-79
2024/01/02 09:19:40;;;;;;;;;0.00;0.00;;;;;-146.67;100.00;74186.47;5063112;28;62182;-79
2024/01/02 09:22:06;;;;;;;;;0.00;0.00;;;;;-146.67;100.00;74194.47;5061211;28;62119;-79
2024/01/02 09:24:31;;;;;;;;;0.00;0.00;;;;;-146.67;100.00;74168.50;5062807;28;62588;-77
2024/01/02 09:27:00;;;;;;;;;0.00;0.00;;;;;-146.67;100.00;74172.50;5063373;28;62055;-77
2024/01/02 09:29:26;;;;;;;;;0.50;0.00;;;;;-146.67;100.00;74160.53;5062825;28;61894;-77
2024/01/02 09:31:51;;;;;;;;;0.00;0.00;;;;;-146.67;100.00;74144.56;5063195;28;61801;-77
2024/01/02 09:34:18;;;;;;;;;0.00;0.00;;;;;-146.67;100.00;74148.56;5060292;28;64634;-78
2024/01/02 09:36:45;;;;;;;;;0.00;0.00;;;;;-146.67;100.00;74138.56;5063491;28;61871;-78
2024/01/02 09:39:12;;;;;;;;;0.00;0.00;;;;;-146.67;100.00;74132.56;5044991;28;61738;-77
2024/01/02 09:41:47;;;;;;;;;0.50;0.00;;;;;-146.67;100.00;74118.59;5061521;28;61920;-77
2024/01/02 09:44:35;;;;;;;;;0.00;0.00;;;;;-146.67;100.00;74106.63;5057010;28;61849;-77
2024/01/02 09:47:29;;;;;;;;;0.00;0.00;;;;;-146.67;100.00;74098.66;5040105;28;61940;-78
2024/01/02 09:50:14;;;;;;;;;0.00;0.00;;;;;-146.67;100.00;74088.66;5035198;28;61867;-79
2024/01/02 09:52:51;;;;;;;;;0.00;0.00;;;;;-146.67;100.00;74084.66;5044031;28;62116;-80
2024/01/02 09:55:41;;;;;;;;;0.00;0.00;;;;;-146.67;100.00;74080.69;5062494;28;61821;-80
2024/01/02 09:58:25;;;;;;;;;0.00;0.00;;;;;-146.67;100.00;74078.69;5062967;28;61911;-80
2024/01/02 10:01:27;;;;;;;;;0.00;0.00;;;;;-146.67;100.00;74090.66;5062963;28;61936;-79
2024/01/02 10:04:20;;;;;;;;;0.00;0.00;;;;;-146.67;100.00;74074.69;5044174;28;61889;-79
2024/01/02 10:07:26;;;;;;;;;0.25;0.25;;;;;-146.67;100.00;74070.69;5061911;28;62897;-80
2024/01/02 10:10:03;;;;;;;;;1.00;0.00;;;;;-146.67;100.00;74066.69;5044475;28;61782;-80
2024/01/02 10:12:46;;;;;;;;;0.00;0.00;;;;;-146.67;100.00;74066.69;5063233;28;62707;-79
2024/01/02 10:15:34;;;;;;;;;0.50;0.50;;;;;-146.67;100.00;74080.69;5062983;28;61866;-79
2024/01/02 10:18:17;;;;;;;;;1.50;0.50;;;;;-146.67;100.00;74090.66;5037942;28;64708;-79
2024/01/02 10:20:51;;;;;;;;;0.00;0.00;;;;;-146.67;100.00;74094.66;5055783;28;61754;-79
2024/01/02 10:23:54;;;;;;;;;0.00;0.00;;;;;-146.67;100.00;74132.56;5043974;28;62511;-80
2024/01/02 10:26:22;;;;;;;;;0.00;0.00;;;;;-146.67;100.00;74110.63;5063229;28;62127;-76
2024/01/02 10:28:49;;;;;;;;;0.00;0.00;;;;;-146.67;100.00;74112.63;5060509;28;64041;-75
2024/01/02 10:31:23;;;;;;;;;0.00;0.00;;;;;-146.67;100.00;74136.56;5044283;28;62096;-76
2024/01/02 10:34:11;;;;;;;;;0.00;0.00;;;;;-146.67;100.00;74122.59;5062211;28;62263;-76
2024/01/02 10:36:46;;;;;;;;;0.00;0.00;;;;;-146.67;100.00;74122.59;5061902;28;61769;-76
2024/01/02 10:39:26;;;;;;;;;0.00;0.00;;;;;-146.67;100.00;74122.59;5060945;28;63663;-76
2024/01/02 10:42:22;;;;;;;;;0.00;0.00;;;;;-146.67;100.00;74122.59;5061777;28;61840;-76
2024/01/02 10:45:22;;;;;;;;;0.00;0.00;;;;;-146.67;100.00;74132.56;5058287;28;62488;-76
2024/01/02 10:47:57;;;;;;;;;0.00;0.00;;;;;-146.67;100.00;74134.56;5041674;28;61972;-76
2024/01/02 10:50:35;;;;;;;;;0.00;0.00;;;;;-146.67;100.00;74134.56;5044198;28;63832;-77
2024/01/02 10:53:16;;;;;;;;;1.00;1.00;;;;;-146.67;100.00;74128.59;5044268;28;61865;-75
2024/01/02 10:55:51;;;;;;;;;0.00;0.00;;;;;-146.67;100.00;74142.56;5062599;28;61924;-76
2024/01/02 10:58:23;;;;;;;;;0.00;0.00;;;;;-146.67;100.00;74128.59;5062613;28;61975;-77
2024/01/02 11:01:04;;;;;;;;;0.00;0.00;;;;;-146.67;100.00;74140.56;5059908;28;64633;-77
2024/01/02 11:03:40;;;;;;;;;0.00;0.00;;;;;-146.67;100.00;74136.56;5061814;28;61951;-75
2024/01/02 11:06:05;;;;;;;;;0.00;0.00;;;;;-146.67;100.00;74152.53;5062042;28;61848;-77
2024/01/02 11:08:51;;;;;;;;;0.00;0.00;;;;;-146.67;100.00;74148.56;5062645;28;61817;-77
2024/01/02 11:11:18;;;;;;;;;2.00;0.00;;;;;-146.67;100.00;74132.56;5061740;28;61956;-77